Stream Gauges

 

John Redmond Lake



    
SHEF ID:       JRLK1     John Redmond Lake
STATION TYPE:  RESERVOIR
Normal Pool:  Bottom =  1026.00, Top =  1041.00

               PRECIP ELEVATION   STORAGE    INFLOW   RELEASE  AIR-TEMP  WIND-DIRWIND-SPEED REL-HUMID SOLAR-RAD   VOLTAGE  BAT-LOAD
                   in        ft     ac-ft       cfs       cfs         F       deg       mph         %      W/m2      volt      volt
              Ccp-Rev   Ccp-Rev   Ccp-Rev  Regi-Rev  Regi-Rev   Ccp-Rev   Ccp-Rev   Ccp-Rev   Ccp-Rev   Ccp-Rev   Ccp-Rev   Ccp-Rev
(US/Central)
04/24 00:00      0.00   1041.11     68342        17       169     57.65    313.30      1.70     64.82      0.00     12.74     12.49
04/24 01:00      0.00   1041.10     68247         9       169     56.30    133.80      2.40     63.08      0.00     12.73     12.49
04/24 02:00      0.00   1041.18     69004         0       169     54.64    330.30      3.00     83.08      0.00     12.72     12.46
04/24 03:00      0.00   1041.12     68436        25       169     53.01    315.30      4.60     87.99      0.00     12.71     12.46
04/24 04:00      0.00   1041.12     68436        38       169     52.83    317.30      5.40     85.67      0.00     12.70     12.46
04/24 05:00      0.00   1041.18     69004        41       169     51.87    329.40      1.60     77.78      0.00     12.69     12.45
04/24 06:00      0.00   1041.15     68720        42       169     51.69    316.10      4.50     80.65      0.00     12.68     12.43
04/24 07:00      0.00   1041.17     68909        42       169     50.97    315.70      2.10     81.27      4.30     12.68     12.43
04/24 08:00      0.00   1041.13     68531        17       169     52.00    294.70      2.90     77.97    147.40     12.81     12.47
04/24 09:00      0.00   1041.12     68436         5       169     52.25    305.30      5.50     80.83    378.40     13.12     12.73
04/24 10:00      0.00   1041.16     68814         2       169     54.75    274.20      4.90     80.75    601.80     14.05     12.93
04/24 11:00      0.00   1041.12     68436         1       169     60.80    255.80      4.20     56.66    788.70     13.48     12.93
04/24 12:00      0.00   1041.13     68531         0       169     66.11    252.20      5.60     34.66    927.00     13.67     12.87
04/24 13:00      0.00   1041.11     68342         0       169     69.01    257.10      5.90     28.69    990.10     13.91     12.86
04/24 14:00      0.00   1041.10     68247         0       169     70.92    285.30      5.80     28.17   1010.10     13.76     12.73
04/24 15:00      0.00   1041.12     68436         0       169     72.18    321.50      7.00     24.02    876.20     14.02     12.77
04/24 16:00      0.00   1041.12     68436         0       169     72.54    336.30      8.00     25.93    727.10     13.66     12.77
04/24 17:00      0.00   1041.09     68153        13       169     72.41    355.30      8.60     26.54    278.30     13.39     12.73
04/24 18:00      0.00   1041.10     68247        13       169     72.32    355.70     11.50     28.37    152.20     13.54     12.73
04/24 19:00      0.00   1041.10     68247        38       169     67.23    342.10     21.50     44.87    106.70     13.86     12.69
04/24 20:00      0.00   1041.12     68436      -901      -901     63.32    342.60     22.80     54.39     30.60     12.81     12.60
04/24 21:00      ----      ----      ----      ----      ----      ----      ----      ----      ----      ----      ----      ----
04/24 22:00      ----      ----      ----      ----      ----      ----      ----      ----      ----      ----      ----      ----
04/24 23:00      ----      ----      ----      ----      ----      ----      ----      ----      ----      ----      ----      ----

    

 

Burlington



    
SHEF ID:       BRLK1     Neosho River, Burlington, KS
STATION TYPE:  

               PRECIP     STAGE  RIV-FLOW  BAT-LOAD
                   in        ft       cfs      volt
              Ccp-Rev   Ccp-Rev   Ccp-Rev   Ccp-Rev
(US/Central)
04/24 00:00      0.00      5.82        63     12.89
04/24 01:00      0.00      5.82        63     12.83
04/24 02:00      0.00      5.82        63     12.83
04/24 03:00      0.00      5.83        65     12.77
04/24 04:00      0.00      5.83        65     12.71
04/24 05:00      0.00      5.83        65     12.77
04/24 06:00      0.00      5.83        65     12.71
04/24 07:00      0.00      5.83        65     12.65
04/24 08:00      0.00      5.83        65     12.60
04/24 09:00      0.00      5.83        65     12.83
04/24 10:00      0.00      5.83        65     13.42
04/24 11:00      0.00      5.83        65     13.83
04/24 12:00      0.00      5.82        63     13.36
04/24 13:00      0.00      5.82        63     13.36
04/24 14:00      0.00      5.82        63     13.30
04/24 15:00      0.00      5.82        63     13.30
04/24 16:00      0.00      5.82        63     13.24
04/24 17:00      0.00      5.82        63     13.07
04/24 18:00      0.00      5.82        63     13.00
04/24 19:00      0.00      5.82        63     13.07
04/24 20:00      0.00      5.83        65     12.95
04/24 21:00      ----      ----      ----      ----
04/24 22:00      ----      ----      ----      ----
04/24 23:00      ----      ----      ----      ----

    

 

Iola



    
SHEF ID:       IOLK1     NEOSHO RIVER NEAR IOLA
STATION TYPE:  

               PRECIP     STAGE  RIV-FLOW  AIR-TEMP  BAT-LOAD
                   in        ft       cfs         F      volt
              Ccp-Rev   Ccp-Rev   Ccp-Rev   Ccp-Rev   Ccp-Rev
(US/Central)
04/24 00:00      0.00      6.83        68     50.42     12.81
04/24 01:00      0.00      6.83        68     47.83     12.81
04/24 02:00      0.00      6.83        68     46.30     12.81
04/24 03:00      0.00      6.83        68     45.28     12.73
04/24 04:00      0.00      6.83        68     43.12     12.73
04/24 05:00      0.00      6.83        68     43.79     12.73
04/24 06:00      0.00      6.83        68     43.73     12.73
04/24 07:00      0.00      6.83        68     43.81     12.65
04/24 08:00      0.00      6.83        68     56.90     12.73
04/24 09:00      0.00      6.83        68     60.50     13.60
04/24 10:00      0.00      6.83        68     69.59     13.68
04/24 11:00      0.00      6.82        63     72.96     13.60
04/24 12:00      0.00      6.82        63     73.29     13.60
04/24 13:00      0.00      6.83        68     76.11     13.60
04/24 14:00      0.00      6.83        68     76.99     13.68
04/24 15:00      0.00      6.82        63     77.81     13.60
04/24 16:00      0.00      6.83        68     78.43     13.60
04/24 17:00      0.00      6.83        68     77.00     13.60
04/24 18:00      0.00      6.82        63     76.71     13.53
04/24 19:00      0.00      6.83        68     75.31     13.60
04/24 20:00      0.00      6.82        68     66.73     13.13
04/24 21:00      ----      6.82      ----     62.71     12.97
04/24 22:00      ----      ----      ----      ----      ----
04/24 23:00      ----      ----      ----      ----      ----

    

 

Chanute



    
SHEF ID:       CNUK1     NEOSHO R NR CHANUTE, KS
STATION TYPE:  

               PRECIP     STAGE  RIV-FLOW   VOLTAGE  BAT-LOAD
                   in        ft       cfs      volt      volt
              Ccp-Rev   Ccp-Rev   Ccp-Rev   Ccp-Rev   Ccp-Rev
(US/Central)
04/24 00:00      0.00      7.73       124     12.81     12.65
04/24 01:00      0.00      7.73       124     12.81     12.65
04/24 02:00      0.00      7.73       124     12.81     12.65
04/24 03:00      0.00      7.74       127     12.73     12.57
04/24 04:00      0.00      7.73       124     12.73     12.57
04/24 05:00      0.00      7.73       124     12.65     12.57
04/24 06:00      0.00      7.73       124     12.65     12.57
04/24 07:00      0.00      7.73       124     12.65     12.57
04/24 08:00      0.00      7.73       124     12.65     12.57
04/24 09:00      0.00      7.73       124     12.81     12.57
04/24 10:00      0.00      7.72       122     13.53     12.97
04/24 11:00      0.00      7.72       122     14.24     13.29
04/24 12:00      0.00      7.72       122     13.44     13.53
04/24 13:00      0.00      7.71       119     13.68     13.53
04/24 14:00      0.00      7.72       122     13.60     13.53
04/24 15:00      0.00      7.72       122     14.00     13.68
04/24 16:00      0.00      7.72       122     13.92     13.68
04/24 17:00      0.00      7.71       119     13.60     13.68
04/24 18:00      0.00      7.71       119     13.21     13.53
04/24 19:00      0.00      7.71       119     13.13     13.13
04/24 20:00      0.00      7.72       122     12.89     12.81
04/24 21:00      ----      ----      ----      ----      ----
04/24 22:00      ----      ----      ----      ----      ----
04/24 23:00      ----      ----      ----      ----      ----

    

 

Parsons



    
SHEF ID:       PPFK1     NEOSHO RIVER NEAR PARSONS 8E
STATION TYPE:  

               PRECIP     STAGE  RIV-FLOW ELEVATION  BAT-LOAD
                   in        ft       cfs        ft      volt
              Ccp-Rev   Ccp-Rev   Ccp-Rev   Ccp-Rev   Ccp-Rev
(US/Central)
04/24 00:00      0.00      7.35       158      ----     12.65
04/24 01:00      0.00      7.36       162      ----     12.65
04/24 02:00      0.00      7.36       162      ----     12.60
04/24 03:00      0.00      7.36       162      ----     12.60
04/24 04:00      0.00      7.36       162      ----     12.60
04/24 05:00      0.00      7.36       162      ----     12.54
04/24 06:00      0.00      7.36       162      ----     12.54
04/24 07:00      0.00      7.36       162      ----     12.54
04/24 08:00      0.00      7.36       162      ----     12.60
04/24 09:00      0.00      7.36       162      ----     13.00
04/24 10:00      0.00      7.36       162      ----     13.48
04/24 11:00      0.00      7.36       162      ----     13.65
04/24 12:00      0.00      7.36       162      ----     14.00
04/24 13:00      0.00      7.36       162      ----     14.30
04/24 14:00      0.00      7.36       162      ----     14.30
04/24 15:00      0.00      7.37       166      ----     14.12
04/24 16:00      0.00      7.36       162      ----     14.18
04/24 17:00      0.00      7.36       162      ----     14.06
04/24 18:00      0.00      7.36       162      ----     13.94
04/24 19:00      0.00      7.36       162      ----     13.07
04/24 20:00      0.00      7.36       162      ----     12.71
04/24 21:00      ----      ----      ----      ----      ----
04/24 22:00      ----      ----      ----      ----      ----
04/24 23:00      ----      ----      ----      ----      ----

    

 

Oswego



    
SHEF ID:       OSOK1     Oswego hwy 160
STATION TYPE:  

               PRECIP     STAGE  RIV-FLOW   VOLTAGE  BAT-LOAD
                   in        ft       cfs      volt      volt
              Ccp-Rev   Ccp-Rev   Ccp-Rev   Ccp-Rev   Ccp-Rev
(US/Central)
04/24 00:00      0.00      8.45       176     12.65     12.57
04/24 01:00      0.00      8.45       176     12.65     12.57
04/24 02:00      0.00      8.46       178     12.65     12.57
04/24 03:00      0.00      8.46       178     12.65     12.57
04/24 04:00      0.00      8.46       178     12.65     12.49
04/24 05:00      0.00      8.46       178     12.65     12.49
04/24 06:00      0.00      8.47       179     12.57     12.49
04/24 07:00      0.00      8.48       181     12.57     12.49
04/24 08:00      0.00      8.47       179     12.81     12.57
04/24 09:00      0.00      8.48       181     13.37     13.29
04/24 10:00      0.00      8.48       181     13.53     13.37
04/24 11:00      0.00      8.48       181     13.29     13.21
04/24 12:00      0.00      8.44       175     13.44     13.44
04/24 13:00      0.00      8.47       179     13.44     13.53
04/24 14:00      0.00      8.44       175     13.53     13.53
04/24 15:00      0.00      8.44       175     13.37     13.29
04/24 16:00      0.00      8.47       179     13.37     13.13
04/24 17:00      0.00      8.48       181     13.37     13.05
04/24 18:00      0.00      8.48       181     13.37     13.05
04/24 19:00      0.00      8.49       182     12.97     12.89
04/24 20:00      0.00      8.49       182     12.81     12.73
04/24 21:00      ----      ----      ----      ----      ----
04/24 22:00      ----      ----      ----      ----      ----
04/24 23:00      ----      ----      ----      ----      ----

    

 

Commerce



    
SHEF ID:       COMO2     Neosho River nr Commerce, OK
STATION TYPE:  

               PRECIP     STAGE  STAGE(2)  RIV-FLOW  BAT-LOAD
                   in        ft        ft       cfs      volt
              Ccp-Rev   Ccp-Rev   Ccp-Rev   Ccp-Rev   Ccp-Rev
(US/Central)
04/24 00:00      0.00      2.45      2.41       197     12.65
04/24 01:00      0.00      2.46      2.42       203     12.65
04/24 02:00      0.00      2.46      2.41       203     12.65
04/24 03:00      0.00      2.46      2.42       203     12.65
04/24 04:00      0.00      2.46      2.41       203     12.65
04/24 05:00      0.00      2.46      2.41       203     12.57
04/24 06:00      0.00      2.46      2.41       203     12.57
04/24 07:00      0.00      2.46      2.41       203     12.57
04/24 08:00      0.00      2.46      2.41       203     12.81
04/24 09:00      0.00      2.46      2.41       203     13.44
04/24 10:00      0.00      2.46      2.41       203     13.37
04/24 11:00      0.00      2.46      2.42       203     13.44
04/24 12:00      0.00      2.45      2.42       197     13.13
04/24 13:00      0.00      2.44      2.42       191     13.05
04/24 14:00      0.00      2.45      2.42       197     12.97
04/24 15:00      0.00      2.44      2.42       191     12.81
04/24 16:00      0.00      2.42      2.43       180     12.81
04/24 17:00      0.00      2.43      2.42       186     12.81
04/24 18:00      0.00      2.45      2.42       197     12.81
04/24 19:00      0.00      2.46      2.43       203     12.73
04/24 20:00      0.00      2.46      2.43       203     12.73
04/24 21:00      ----      ----      ----      ----      ----
04/24 22:00      ----      ----      ----      ----      ----
04/24 23:00      ----      ----      ----      ----      ----

    

 

Spring River , Quapaw



    
SHEF ID:       QUAO2     Spring River near Quapaw, OK
STATION TYPE:  

               PRECIP     STAGE  STAGE(2)  RIV-FLOW  BAT-LOAD
                   in        ft        ft       cfs      volt
              Ccp-Rev   Ccp-Rev   Ccp-Rev   Ccp-Rev   Ccp-Rev
(US/Central)
04/24 00:00      0.00      7.28      7.28      1065     12.49
04/24 01:00      0.00      7.27      7.28      1057     12.41
04/24 02:00      0.00      7.26      7.28      1049     12.41
04/24 03:00      0.00      7.27      7.28      1057     12.41
04/24 04:00      0.00      7.27      7.28      1057     12.41
04/24 05:00      0.00      7.27      7.28      1057     12.33
04/24 06:00      0.00      7.26      7.27      1049     12.33
04/24 07:00      0.00      7.26      7.27      1049     12.33
04/24 08:00      0.00      7.26      7.27      1049     12.41
04/24 09:00      0.00      7.26      7.26      1049     12.49
04/24 10:00      0.00      7.26      7.25      1049     12.97
04/24 11:00      0.00      7.26      7.24      1049     13.44
04/24 12:00      0.00      7.26      7.18      1049     13.44
04/24 13:00      0.00      7.26      7.21      1049     13.29
04/24 14:00      0.00      7.25      7.18      1041     13.21
04/24 15:00      0.00      7.25      7.20      1041     13.13
04/24 16:00      0.00      7.24      7.17      1033     13.53
04/24 17:00      0.00      7.24      7.18      1033     13.21
04/24 18:00      0.00      7.23      7.20      1025     13.13
04/24 19:00      0.00      7.24      7.22      1033     13.13
04/24 20:00      0.00      7.23      7.22      1025     12.97
04/24 21:00      ----      ----      ----      ----      ----
04/24 22:00      ----      ----      ----      ----      ----
04/24 23:00      ----      ----      ----      ----      ----

    

 

Elk River, Tiff City



    
SHEF ID:       TIFM7     Elk River near Tiff City, Mo
STATION TYPE:  

               PRECIP     STAGE  STAGE(2)  RIV-FLOW   VOLTAGE
                   in        ft        ft       cfs      volt
              Ccp-Rev   Ccp-Rev   Ccp-Rev   Ccp-Rev   Ccp-Rev
(US/Central)
04/24 00:00      0.00      4.05      4.04       765     12.90
04/24 01:00      0.00      4.05      4.03       765     12.90
04/24 02:00      0.00      4.05      4.03       765     12.90
04/24 03:00      0.00      4.04      4.05       761     12.90
04/24 04:00      0.00      4.06      4.06       770     12.90
04/24 05:00      0.00      4.05      4.05       765     12.90
04/24 06:00      0.00      4.06      4.05       770     12.80
04/24 07:00      0.00      4.06      4.04       770     13.00
04/24 08:00      0.00      4.06      4.04       770     13.50
04/24 09:00      0.00      4.06      4.06       770     14.20
04/24 10:00      0.00      4.06      4.06       770     13.90
04/24 11:00      0.00      4.06      4.07       770     13.80
04/24 12:00      0.00      4.05      4.05       765     13.70
04/24 13:00      0.00      4.06      4.05       770     14.30
04/24 14:00      0.00      4.05      4.03       765     13.70
04/24 15:00      0.00      4.05      4.05       765     13.60
04/24 16:00      0.00      4.06      4.04       770     13.70
04/24 17:00      0.00      4.05      4.04       765     13.70
04/24 18:00      0.00      4.06      4.03       770     13.10
04/24 19:00      0.00      4.05      4.04       765     13.00
04/24 20:00      0.00      4.05      4.03       765     13.00
04/24 21:00      ----      ----      ----      ----      ----
04/24 22:00      ----      ----      ----      ----      ----
04/24 23:00      ----      ----      ----      ----      ----

    

 

Grand Lake, Pensacola Dam



    
SHEF ID:       PENO2     Lake O' the Cherokees at Langley
STATION TYPE:  RESERVOIR

               PRECIP ELEVATION   STORAGE    INFLOW   RELEASE  AIR-TEMP  WIND-DIRWIND-SPEED REL-HUMID SOLAR-RAD   VOLTAGE  BAT-LOAD
                   in        ft     ac-ft       cfs       cfs         F       deg       mph         %      W/m2      volt      volt
              Ccp-Rev   Ccp-Rev   Ccp-Rev  Regi-Rev  Regi-Rev   Ccp-Rev   Ccp-Rev   Ccp-Rev   Ccp-Rev   Ccp-Rev   Ccp-Rev   Ccp-Rev
(US/Central)
04/24 00:00      0.00    741.99   1392304        60     11041     57.90     28.61      0.11     69.36      0.00     12.80     12.49
04/24 01:00      0.00    742.04   1394312      -901      -901     55.96    341.36      0.76     80.36      0.00     12.79     12.49
04/24 02:00      0.00    742.04   1394312      -901      -901     53.44     89.87      0.88     84.34      0.00     12.78     12.49
04/24 03:00      0.00    742.01   1393103      -901      -901     51.13    117.07      1.16     88.54      0.00     12.77     12.49
04/24 04:00      0.00    742.02   1393506      -901      -901     49.60    112.56      1.27     93.02      0.00     12.77     12.49
04/24 05:00      0.00    742.04   1394312      -901      -901     48.52    113.98      0.94     94.37      0.00     12.76     12.49
04/24 06:00      0.00    742.02   1393506      -901      -901     47.82     83.89      0.34     93.12      0.00     12.75     12.41
04/24 07:00      0.00    742.03   1393909      -901      -901     48.20     78.08      0.35     91.73      2.80     12.74     12.41
04/24 08:00      0.00    742.02   1393506      -901      -901     49.59    103.11      1.20     85.69    122.26     12.72     12.41
04/24 09:00      0.00    742.05   1394715      -901      -901     56.68     58.38      0.43     64.81    311.56     12.72     12.41
04/24 10:00      0.00    742.06   1395118      -901      -901     59.83    359.37      0.79     59.34    503.88     12.73     12.41
04/24 11:00      0.00    742.05   1394715      -901      -901     63.12    357.85      1.11     49.46    663.78     12.73     12.41
04/24 12:00      0.00    742.01   1393103      -901      -901     67.05    357.75      3.32     41.10    800.19     12.73     12.41
04/24 13:00      0.00    742.02   1393506      -901      -901     68.52    327.46      8.62     35.82    792.64     12.72     12.41
04/24 14:00      0.00    742.03   1393909      -901      -901     70.02    341.56      7.49     32.45    879.62     12.72     12.41
04/24 15:00      0.00    742.02   1393506      -901      -901     70.66    335.48      7.27     31.96    852.32     12.72     12.41
04/24 16:00      0.00    742.02   1393506      -901      -901     71.26    331.41      7.26     32.02    697.85     12.71     12.41
04/24 17:00      0.00    742.01   1393103      -901      -901     71.13    334.64      7.90     34.73    484.58     12.71     12.41
04/24 18:00      0.00    742.03   1393909      -901      -901     72.37    326.13      5.67     32.87    388.36     12.70     12.41
04/24 19:00      0.00    742.04   1394312      -901      -901     71.40    322.94      6.66     36.66    190.34     12.70     12.41
04/24 20:00      0.00    742.01   1393103      -901      -901     70.88    306.24      3.38     33.55     16.54     13.27     12.41
04/24 21:00      ----      ----      ----      -901      -901      ----      ----      ----      ----      ----      ----      ----
04/24 22:00      ----      ----      ----      ----      ----      ----      ----      ----      ----      ----      ----      ----
04/24 23:00      ----      ----      ----      ----      ----      ----      ----      ----      ----      ----      ----      ----

    

 

Big Cabin Creek



    
SHEF ID:       BGCO2     Big Cabin Creek near Big Cabin,
STATION TYPE:  

               PRECIP     STAGE  STAGE(2)  RIV-FLOW  BAT-LOAD
                   in        ft        ft       cfs      volt
              Ccp-Rev   Ccp-Rev   Ccp-Rev   Ccp-Rev   Ccp-Rev
(US/Central)
04/24 00:00      0.00     12.82     12.80        55     12.65
04/24 01:00      0.00     12.82     12.81        55     12.57
04/24 02:00      0.00     12.81     12.80        53     12.65
04/24 03:00      0.00     12.81     12.81        53     12.65
04/24 04:00      0.00     12.82     12.81        55     12.65
04/24 05:00      0.00     12.81     12.80        53     12.57
04/24 06:00      0.00     12.81     12.80        53     12.57
04/24 07:00      0.00     12.81     12.80        53     12.57
04/24 08:00      0.00     12.81     12.80        53     12.57
04/24 09:00      0.00     12.80     12.79        52     13.29
04/24 10:00      0.00     12.80     12.78        52     13.37
04/24 11:00      0.00     12.80     12.77        52     13.44
04/24 12:00      0.00     12.81     12.74        53     13.44
04/24 13:00      0.00     12.80     12.76        52     13.53
04/24 14:00      0.00     12.80     12.74        52     13.53
04/24 15:00      0.00     12.80     12.74        52     13.37
04/24 16:00      0.00     12.80     12.74        52     13.37
04/24 17:00      0.00     12.79     12.74        51     13.29
04/24 18:00      0.00     12.80     12.74        52     13.29
04/24 19:00      0.00     12.79     12.73        51     13.13
04/24 20:00      0.00     12.79     12.74        51     12.73
04/24 21:00      ----      ----      ----      ----      ----
04/24 22:00      ----      ----      ----      ----      ----
04/24 23:00      ----      ----      ----      ----      ----

    

 

Spavinaw Lake (Lower)




 

Hudson Lake



    
SHEF ID:       MFDO2     Lake Hudson near Locust Grove, O
STATION TYPE:  RESERVOIR

               PRECIP ELEVATION   STORAGE   TW-ELEV    INFLOW   RELEASE  AIR-TEMP  WIND-DIRWIND-SPEED REL-HUMID SOLAR-RAD   VOLTAGE  BAT-LOAD
                   in        ft     ac-ft        ft       cfs       cfs         F       deg       mph         %      W/m2      volt      volt
              Ccp-Rev   Ccp-Rev   Ccp-Rev   Ccp-Rev  Regi-Rev  Regi-Rev   Ccp-Rev   Ccp-Rev   Ccp-Rev   Ccp-Rev   Ccp-Rev   Ccp-Rev   Ccp-Rev
(US/Central)
04/24 00:00      0.00    619.73    208300    564.81      5631      1080     55.60    282.20      0.70     84.12      0.00     12.23     11.77
04/24 01:00      0.00    619.73    208300    563.24      -901      -901     53.56    277.50      2.00     86.00      0.00     12.22     11.77
04/24 02:00      0.00    619.78    208856    562.46      -901      -901     52.38    228.50      0.40     89.26      0.00     12.20     11.77
04/24 03:00      0.00    619.70    207967    561.93      -901      -901     51.04    272.80      0.80     91.53      0.00     12.20     11.77
04/24 04:00      0.00    619.61    206967    561.55      -901      -901     50.22    245.30      0.20     90.19      0.00     12.19     11.77
04/24 05:00      0.00    619.63    207189    561.26      -901      -901     49.66    305.70      0.50     90.95      0.00     12.18     11.70
04/24 06:00      0.00    619.65    207411    561.02      -901      -901     49.75    337.80      1.20     91.98      0.00     12.17     11.70
04/24 07:00      0.00    619.63    207189    560.83      -901      -901     47.71    278.10      1.30     92.41      2.20     12.17     11.70
04/24 08:00      0.00    619.60    206856    560.66      -901      -901     50.31     84.60      0.60     85.92    112.00     12.27     11.70
04/24 09:00      0.00    619.63    207189    560.52      -901      -901     54.73     96.30      0.50     77.08    299.00     12.52     11.77
04/24 10:00      0.00    619.66    207523    560.57      -901      -901     57.72     94.50      1.40     69.10    490.60     12.69     12.01
04/24 11:00      0.00    619.56    206412    562.75      -901      -901     62.64     67.60      4.20     52.66    648.30     12.50     12.17
04/24 12:00      0.00    619.49    205634    564.68      -901      -901     69.06    356.20      5.10     34.62    280.50     12.41     12.01
04/24 13:00      0.00    619.64    207300    563.00      -901      -901     71.73    340.60      4.90     29.82     32.50     12.38     11.93
04/24 14:00      0.00    619.70    207967    562.28      -901      -901     73.26    327.70      6.50     26.89     41.30     12.36     11.93
04/24 15:00      0.00    619.73    208300    561.79      -901      -901     74.01    349.00      5.90     24.51     41.00     12.35     11.93
04/24 16:00      0.00    619.84    209522    561.46      -901      -901     75.56    335.70      5.40     22.11     42.20     12.34     11.93
04/24 17:00      0.00    619.85    209633    561.17      -901      -901     75.56      0.50      6.70     23.78     71.00     12.33     11.93
04/24 18:00      0.00    619.85    209633    560.93      -901      -901     75.69      0.20      6.40     24.93    282.50     12.32     11.93
04/24 19:00      0.00    619.85    209633    560.75      -901      -901     76.37    351.80      5.30     24.17    197.30     12.33     11.93
04/24 20:00      0.00    619.83    209411    560.61        12     25920     75.27    348.40      3.00     25.10     22.50     12.30     11.93
04/24 21:00      ----      ----      ----      ----      ----     25920      ----      ----      ----      ----      ----      ----      ----
04/24 22:00      ----      ----      ----      ----      ----     25920      ----      ----      ----      ----      ----      ----      ----
04/24 23:00      ----      ----      ----      ----      ----     25920      ----      ----      ----      ----      ----      ----      ----